Airfield :
LOGIN :

Register | Disclaimer

   EN    FR    IT 

 










Legend :    VFR   Marginal VFR   IFR   Intensive IFR   Very Intensive IFR
Visi :
Ceiling :
>= 8 km
>= 3000ft
5 to 8 km
1000 to 3000 ft
1500m to 5 km
500 to 1000 ft
800 to 1500m
200 to 500 ft
< 800m
< 200 ft
Symbols :   Thunderstorms  Fog  Heavy snow  Heavy precipitations  Wind > 20 kt
SIGMETs :     Misc.  Thunderstorms  Icing  Turbulence  Mountain Waves  Volcanic Ashes







- Airport Elevation : 13 ft
- IATA code : CEQ
- Download approach charts


LFMD - Cannes Mandelieu

CURRENT METAR :
  • 141700Z AUTO 36003KT 310V070 9999 -RA FEW049 BKN096 BKN110 24/21 Q1011 BECMG FEW040TCU

EXPIRED METARs :
  • 141630Z AUTO 33004KT 280V030 9999 -RA VCTS FEW100/// OVC130/// ///CB 25/20 Q1011 BECMG 11010KT NSW
  • 141600Z AUTO 05005KT 010V100 9999 -TSRA FEW023/// BKN098/// BKN140/// ///CB 26/20 Q1011 BECMG NSW
  • 141530Z AUTO 09005KT 040V190 9999 VCTS ///CB 27/20 Q1010 BECMG NSW
  • 141500Z AUTO 14008KT 030V170 9999 ///CB 28/20 Q1010 TEMPO TSRA
  • 141430Z AUTO 13008KT 080V220 CAVOK 28/20 Q1010 TEMPO 36010G25KT TSRA BKN025 FEW030CB

TAF TAF LFMD
Valid from the 14 at 15:00 until the 15 at 15:00 UTC


141400Z 1415/1515 11010KT 9999 FEW040TCU
PROB30
TEMPO 1415/1417 36010G25KT TSRA BKN025 FEW030CB
BECMG 1419/1421 36006KT CAVOK
BECMG 1508/1510 16010KT FEW040
ATIS : +33 4 93 48 73 23
No reported NOTAMs for that airfield.



MET'MAP, your aeronautical weather chart ! - Copyright ORBIFLY December 2007 - Disclaimer

ORBIFLY MET'MAP TEAM :

Programming & Development : Alexandra Zaïnal
Concept & Development : Baudouin d'Aumeries
Co-Development & Prog : Marc-Olivier Méhu
Technical & hardware support : Manuel Goepfert

Contact : metmap@orbifly.com




SOURCES & CREDITS :

   NOAA